createdAt,value
2023-04-13T00:02:54.784Z,88.50
2023-04-13T00:07:03.821Z,87.87
2023-04-13T00:11:11.067Z,88.52
2023-04-13T00:15:15.706Z,87.46
2023-04-13T00:19:18.496Z,87.07
2023-04-13T00:23:32.442Z,85.00
2023-04-13T00:27:42.506Z,85.06
2023-04-13T00:31:44.278Z,85.21
2023-04-13T00:35:46.562Z,85.65
2023-04-13T00:39:55.495Z,85.46
2023-04-13T00:43:56.430Z,85.24
2023-04-13T00:48:01.294Z,86.25
2023-04-13T00:52:07.048Z,85.51
2023-04-13T00:56:24.791Z,85.56
2023-04-13T01:00:28.051Z,84.66
2023-04-13T01:04:33.636Z,85.78
2023-04-13T01:08:47.207Z,85.40
2023-04-13T01:13:18.757Z,86.05
2023-04-13T01:22:19.335Z,85.83
2023-04-13T01:26:44.559Z,85.84
2023-04-13T01:31:08.769Z,86.18
2023-04-13T01:35:50.330Z,85.87
2023-04-13T01:40:11.426Z,85.38
2023-04-13T01:44:14.663Z,84.51
2023-04-13T01:48:19.625Z,84.38
2023-04-13T01:52:24.351Z,84.00
2023-04-13T01:56:27.044Z,84.02
2023-04-13T02:00:36.510Z,83.94
2023-04-13T02:04:50.453Z,83.14
2023-04-13T02:08:52.495Z,83.80
2023-04-13T02:12:57.359Z,83.67
2023-04-13T02:17:04.079Z,85.00
2023-04-13T02:21:12.420Z,84.35
2023-04-13T02:25:16.081Z,84.13
2023-04-13T02:29:18.662Z,84.27
2023-04-13T02:33:22.176Z,83.60
2023-04-13T02:37:28.742Z,83.70
2023-04-13T02:41:29.822Z,83.18
2023-04-13T02:45:34.484Z,83.51
2023-04-13T02:49:36.632Z,83.96
2023-04-13T02:53:40.740Z,84.09
2023-04-13T02:57:42.619Z,82.97
2023-04-13T03:01:45.625Z,83.68
2023-04-13T03:05:50.935Z,83.20
2023-04-13T03:09:55.555Z,83.62
2023-04-13T03:14:01.333Z,83.60
2023-04-13T03:18:04.327Z,83.28
2023-04-13T03:22:16.360Z,83.29
2023-04-13T03:26:21.823Z,83.24
2023-04-13T03:30:24.815Z,83.15
2023-04-13T03:34:34.592Z,83.25
2023-04-13T03:38:43.303Z,83.27
2023-04-13T03:42:46.813Z,82.74
2023-04-13T03:46:47.617Z,82.71
2023-04-13T03:50:53.630Z,81.79
2023-04-13T03:54:56.850Z,82.11
2023-04-13T03:59:04.638Z,82.71
2023-04-13T04:03:10.765Z,83.35
2023-04-13T04:07:24.866Z,83.51
2023-04-13T04:11:29.525Z,83.16
2023-04-13T04:15:36.001Z,81.78
2023-04-13T04:19:41.908Z,79.89
2023-04-13T04:23:49.268Z,77.55
2023-04-13T04:27:59.366Z,76.96
2023-04-13T04:32:12.873Z,74.53
2023-04-13T04:36:13.732Z,74.66
2023-04-13T04:40:18.731Z,73.97
2023-04-13T04:44:19.996Z,72.95
2023-04-13T04:48:32.215Z,72.57
2023-04-13T04:52:33.166Z,72.15
2023-04-13T04:56:34.190Z,73.92
2023-04-13T05:00:35.258Z,72.58
2023-04-13T05:04:45.559Z,73.79
2023-04-13T05:08:52.524Z,72.35
2023-04-13T05:12:55.964Z,71.91
2023-04-13T05:16:58.712Z,71.39
2023-04-13T05:21:03.209Z,69.18
2023-04-13T05:25:04.828Z,70.48
2023-04-13T05:29:10.756Z,70.51
2023-04-13T05:33:16.177Z,70.55
2023-04-13T05:37:20.360Z,69.70
2023-04-13T05:41:31.658Z,68.93
2023-04-13T05:45:38.396Z,68.60
2023-04-13T05:49:56.896Z,69.67
2023-04-13T05:54:13.622Z,69.81
2023-04-13T05:58:25.723Z,71.79
2023-04-13T06:02:27.733Z,71.51
2023-04-13T06:06:30.615Z,71.36
2023-04-13T06:10:49.971Z,69.78
2023-04-13T06:14:54.062Z,70.36
2023-04-13T06:19:02.034Z,70.05
2023-04-13T06:23:13.814Z,69.45
2023-04-13T06:27:17.422Z,70.25
2023-04-13T06:31:22.167Z,69.50
2023-04-13T06:35:32.374Z,68.89
2023-04-13T06:39:40.529Z,69.28
2023-04-13T06:44:05.659Z,68.00
2023-04-13T06:48:07.673Z,66.65
2023-04-13T06:52:11.654Z,67.41
2023-04-13T06:56:15.681Z,66.48
2023-04-13T07:00:28.966Z,68.12
2023-04-13T07:04:37.907Z,66.79
2023-04-13T07:08:40.607Z,64.87
2023-04-13T07:12:50.037Z,63.66
2023-04-13T07:16:55.959Z,65.03
2023-04-13T07:20:55.944Z,64.31
2023-04-13T07:24:57.730Z,64.01
2023-04-13T07:28:57.977Z,63.41
2023-04-13T07:33:13.110Z,63.20
2023-04-13T07:37:13.902Z,62.80
2023-04-13T07:41:25.103Z,63.33
2023-04-13T07:45:27.931Z,61.39
2023-04-13T07:49:30.740Z,59.90
2023-04-13T07:53:33.269Z,59.87
2023-04-13T07:57:36.091Z,60.96
2023-04-13T08:01:37.031Z,60.73
2023-04-13T08:05:42.702Z,60.66
2023-04-13T08:09:46.309Z,58.94
2023-04-13T08:13:46.451Z,60.77
2023-04-13T08:17:48.749Z,60.92
2023-04-13T08:21:54.667Z,59.89
2023-04-13T08:25:56.021Z,60.27
2023-04-13T08:30:14.869Z,59.04
2023-04-13T08:34:20.456Z,59.59
2023-04-13T08:38:24.852Z,60.29
2023-04-13T08:42:33.370Z,60.87
2023-04-13T08:46:34.254Z,60.39
2023-04-13T08:50:35.708Z,60.54
2023-04-13T08:54:37.477Z,59.98
2023-04-13T08:58:40.560Z,60.78
2023-04-13T09:02:49.251Z,57.98
2023-04-13T09:07:01.568Z,57.17
2023-04-13T09:11:05.715Z,56.72
2023-04-13T09:15:12.400Z,57.37
2023-04-13T09:19:15.783Z,54.59
2023-04-13T09:23:28.974Z,55.64
2023-04-13T09:27:34.319Z,54.64
2023-04-13T09:31:37.272Z,54.01
2023-04-13T09:35:41.557Z,54.23
2023-04-13T09:39:44.018Z,52.67
2023-04-13T09:43:49.701Z,53.41
2023-04-13T09:48:03.646Z,52.50
2023-04-13T09:52:04.262Z,52.92
2023-04-13T09:56:07.875Z,52.79
2023-04-13T10:00:17.746Z,52.54
2023-04-13T10:04:19.160Z,51.19
2023-04-13T10:08:37.588Z,52.27
2023-04-13T10:12:46.213Z,51.13
2023-04-13T10:16:59.444Z,51.53
2023-04-13T10:21:00.593Z,51.58
2023-04-13T10:25:02.648Z,50.73
2023-04-13T10:29:07.620Z,51.17
2023-04-13T10:33:12.007Z,48.42
2023-04-13T10:37:21.170Z,46.83
2023-04-13T10:41:28.987Z,45.92
2023-04-13T10:45:37.745Z,43.81
2023-04-13T10:49:42.871Z,42.64
2023-04-13T10:53:52.521Z,41.89
2023-04-13T10:57:55.079Z,41.22
2023-04-13T11:02:13.748Z,41.75
2023-04-13T11:06:24.993Z,39.86
2023-04-13T11:10:34.915Z,40.54
2023-04-13T11:14:40.474Z,41.51
2023-04-13T11:19:05.793Z,40.04
2023-04-13T11:23:25.962Z,41.61
2023-04-13T11:27:33.401Z,40.18
2023-04-13T11:32:06.510Z,40.89
2023-04-13T11:36:07.660Z,40.36
2023-04-13T11:40:29.185Z,39.41
2023-04-13T11:44:32.579Z,39.45
2023-04-13T11:48:33.745Z,37.64
2023-04-13T11:52:38.382Z,39.53
2023-04-13T11:56:52.761Z,38.21
2023-04-13T12:00:54.207Z,37.18
2023-04-13T12:04:54.638Z,37.28
2023-04-13T12:09:09.387Z,38.40
2023-04-13T12:17:38.458Z,37.53
2023-04-13T12:21:40.267Z,36.76
2023-04-13T12:25:45.385Z,36.05
2023-04-13T12:29:49.182Z,35.84
2023-04-13T12:34:00.995Z,36.78
2023-04-13T12:38:12.070Z,35.72
2023-04-13T12:42:28.384Z,35.11
2023-04-13T12:46:32.389Z,35.47
2023-04-13T12:50:33.722Z,35.63
2023-04-13T12:54:33.591Z,34.92
2023-04-13T12:58:36.067Z,34.95
2023-04-13T13:02:42.861Z,35.32
2023-04-13T13:06:44.433Z,33.44
2023-04-13T13:10:47.289Z,34.41
2023-04-13T13:14:47.852Z,33.80
2023-04-13T13:18:51.605Z,33.55
2023-04-13T13:22:52.010Z,32.48
2023-04-13T13:30:59.440Z,32.47
2023-04-13T13:35:04.471Z,33.04
2023-04-13T13:39:09.318Z,33.70
2023-04-13T13:43:14.044Z,31.83
2023-04-13T13:47:19.346Z,32.28
2023-04-13T13:51:28.411Z,32.65
2023-04-13T13:55:42.488Z,30.73
2023-04-13T13:59:49.430Z,31.15
2023-04-13T14:03:56.474Z,30.71
2023-04-13T14:08:05.620Z,30.68
2023-04-13T14:12:09.204Z,31.09
2023-04-13T14:16:16.442Z,30.20
2023-04-13T14:20:28.947Z,30.85
2023-04-13T14:24:53.653Z,30.60
2023-04-13T14:29:06.686Z,30.33
2023-04-13T14:33:19.113Z,30.54
2023-04-13T14:37:28.261Z,30.83
2023-04-13T14:41:36.237Z,30.32
2023-04-13T14:45:54.842Z,29.54
2023-04-13T14:50:02.536Z,29.05
2023-04-13T14:54:03.691Z,29.52
2023-04-13T14:58:25.464Z,28.77
2023-04-13T15:02:33.116Z,28.21
2023-04-13T15:06:39.458Z,28.64
2023-04-13T15:10:41.275Z,28.86
2023-04-13T15:14:48.028Z,29.66
2023-04-13T15:18:49.988Z,29.39
2023-04-13T15:27:26.073Z,29.01
2023-04-13T15:31:44.090Z,28.67
2023-04-13T15:35:53.309Z,29.36
2023-04-13T15:40:01.104Z,30.45
2023-04-13T15:44:09.363Z,29.10
2023-04-13T15:48:15.935Z,28.90
2023-04-13T15:52:28.142Z,29.32
2023-04-13T15:56:34.181Z,28.87
2023-04-13T16:00:41.579Z,28.95
2023-04-13T16:05:01.403Z,28.93
2023-04-13T16:09:25.491Z,28.83
2023-04-13T16:13:49.460Z,28.51
2023-04-13T16:17:54.132Z,29.26
2023-04-13T16:22:02.519Z,29.54
2023-04-13T16:26:05.440Z,31.16
2023-04-13T16:30:10.385Z,32.49
2023-04-13T16:34:24.869Z,32.87
2023-04-13T16:38:44.428Z,33.70
2023-04-13T16:42:51.826Z,34.73
2023-04-13T16:46:54.785Z,35.47
2023-04-13T16:51:01.823Z,35.79
2023-04-13T16:55:05.631Z,36.72
2023-04-13T16:59:06.707Z,37.36
2023-04-13T17:03:06.706Z,37.99
2023-04-13T17:07:10.934Z,38.98
2023-04-13T17:11:13.888Z,37.98
2023-04-13T17:15:16.003Z,38.66
2023-04-13T17:19:19.928Z,40.95
2023-04-13T17:23:30.086Z,43.31
2023-04-13T17:27:54.594Z,43.62
2023-04-13T17:31:55.265Z,43.95
2023-04-13T17:35:56.293Z,43.91
2023-04-13T17:39:57.027Z,43.99
2023-04-13T17:44:00.191Z,44.83
2023-04-13T17:48:04.272Z,45.26
2023-04-13T17:52:05.583Z,46.11
2023-04-13T17:56:07.572Z,48.25
2023-04-13T18:00:11.262Z,48.54
2023-04-13T18:04:14.045Z,48.90
2023-04-13T18:08:14.498Z,50.09
2023-04-13T18:12:24.053Z,50.61
2023-04-13T18:16:38.084Z,51.55
2023-04-13T18:20:37.979Z,52.97
2023-04-13T18:24:42.395Z,53.92
2023-04-13T18:28:46.333Z,53.61
2023-04-13T18:32:58.185Z,53.28
2023-04-13T18:37:09.611Z,53.04
2023-04-13T18:41:16.264Z,53.35
2023-04-13T18:45:20.221Z,54.63
2023-04-13T18:49:27.113Z,55.17
2023-04-13T18:53:31.813Z,54.62
2023-04-13T18:57:32.838Z,54.03
2023-04-13T19:01:36.411Z,53.30
2023-04-13T19:05:42.719Z,53.04
2023-04-13T19:09:43.019Z,53.81
2023-04-13T19:13:45.042Z,54.96
2023-04-13T19:17:44.738Z,54.79
2023-04-13T19:21:50.570Z,56.20
2023-04-13T19:25:54.487Z,56.53
2023-04-13T19:29:55.207Z,56.79
2023-04-13T19:33:58.247Z,56.35
2023-04-13T19:38:04.649Z,56.03
2023-04-13T19:42:04.978Z,56.19
2023-04-13T19:50:29.350Z,56.55
2023-04-13T19:54:37.482Z,56.10
2023-04-13T19:58:39.019Z,55.84
2023-04-13T20:02:40.453Z,56.53
2023-04-13T20:06:41.957Z,55.88
2023-04-13T20:10:48.542Z,56.19
2023-04-13T20:14:51.956Z,56.63
2023-04-13T20:18:57.919Z,56.64
2023-04-13T20:23:03.248Z,58.00
2023-04-13T20:27:09.135Z,58.93
2023-04-13T20:31:13.247Z,58.77
2023-04-13T20:35:15.806Z,58.99
2023-04-13T20:39:25.582Z,58.78
2023-04-13T20:43:31.427Z,59.38
2023-04-13T20:47:35.961Z,58.70
2023-04-13T20:51:41.542Z,56.70
2023-04-13T20:55:42.185Z,56.48
2023-04-13T20:59:48.687Z,56.91
2023-04-13T21:03:53.459Z,59.85
2023-04-13T21:07:58.269Z,60.34
2023-04-13T21:12:02.586Z,59.53
2023-04-13T21:16:06.335Z,59.71
2023-04-13T21:20:15.953Z,60.80
2023-04-13T21:24:20.586Z,62.43
2023-04-13T21:28:29.212Z,62.14
2023-04-13T21:32:34.996Z,62.83
2023-04-13T21:40:47.836Z,67.10
2023-04-13T21:44:57.415Z,69.26
2023-04-13T21:49:05.498Z,70.71
2023-04-13T21:53:06.227Z,71.75
2023-04-13T21:57:10.670Z,73.66
2023-04-13T22:01:13.173Z,75.75
2023-04-13T22:05:19.027Z,76.03
2023-04-13T22:09:41.155Z,76.23
2023-04-13T22:18:35.931Z,78.12
2023-04-13T22:23:11.163Z,78.36
2023-04-13T22:27:31.868Z,78.19
2023-04-13T22:31:51.053Z,78.05
2023-04-13T22:35:55.885Z,77.35
2023-04-13T22:40:00.419Z,76.11
2023-04-13T22:44:05.670Z,75.29
2023-04-13T22:48:19.865Z,74.92
2023-04-13T22:52:36.033Z,74.76
2023-04-13T22:56:58.278Z,75.29
2023-04-13T23:01:03.730Z,76.80
2023-04-13T23:05:03.616Z,76.93
2023-04-13T23:09:04.504Z,76.79
2023-04-13T23:13:10.484Z,76.68
2023-04-13T23:17:16.153Z,76.41
2023-04-13T23:21:27.944Z,77.13
2023-04-13T23:25:34.261Z,76.96
2023-04-13T23:29:45.528Z,77.04
2023-04-13T23:33:46.061Z,77.49
2023-04-13T23:37:47.366Z,77.19
2023-04-13T23:41:50.394Z,78.06
2023-04-13T23:45:57.408Z,80.12
2023-04-13T23:49:57.737Z,81.14
2023-04-13T23:54:03.689Z,81.06
2023-04-13T23:58:08.019Z,81.26
